Time;durP1;ratioP1;P1;durP2;ratioP2;P2;SDS_P1;SDS_P2;PMS_P1;PMS_P2;Temp;Humidity;BMP_temperature;BMP_pressure;BME280_temperature;BME280_humidity;BME280_pressure;Samples;Min_cycle;Max_cycle;Signal;HPM_P1;HPM_P2
2023/06/01 00:02:17;;;;;;;;;;;17.80;73.40;;;-151.14;100.00;62537.16;4913995;29;19924;-86
2023/06/01 00:04:48;;;;;;;;;;;17.80;73.40;;;-151.14;100.00;62537.16;4897844;29;19927;-87
2023/06/01 00:07:16;;;;;;;;;;;17.70;73.40;;;-151.14;100.00;62537.16;4898017;29;19930;-87
2023/06/01 00:09:44;;;;;;;;;;;17.70;73.40;;;-151.14;100.00;62537.16;4897503;29;19930;-87
2023/06/01 00:12:12;;;;;;;;;;;17.80;73.40;;;-151.14;100.00;62537.16;4915790;29;20122;-86
2023/06/01 00:14:40;;;;;;;;;;;17.70;73.40;;;-151.14;100.00;62537.16;4916813;29;19930;-86
2023/06/01 00:17:09;;;;;;;;;;;17.70;73.40;;;-151.14;100.00;62537.16;4901211;29;19923;-87
2023/06/01 00:19:39;;;;;;;;;;;17.70;73.40;;;-151.14;100.00;62537.16;4916334;29;19930;-86
2023/06/01 00:22:07;;;;;;;;;;;17.70;73.50;;;-151.14;100.00;62537.16;4916830;29;19923;-86
2023/06/01 00:24:35;;;;;;;;;;;17.70;73.50;;;-151.14;100.00;62537.16;4916811;29;19946;-87
2023/06/01 00:27:03;;;;;;;;;;;17.70;73.50;;;-151.14;100.00;62537.16;4916538;29;20118;-87
2023/06/01 00:29:31;;;;;;;;;;;17.70;73.60;;;-151.14;100.00;62537.16;4916158;29;20232;-86
2023/06/01 00:32:00;;;;;;;;;;;17.70;73.60;;;-151.14;100.00;62537.16;4900785;29;19924;-86
2023/06/01 00:34:28;;;;;;;;;;;17.70;73.60;;;;;;4916588;29;20092;-87
2023/06/01 00:36:57;;;;;;;;;;;17.70;73.60;;;-151.14;100.00;62537.16;4900942;29;20210;-85
2023/06/01 00:39:25;;;;;;;;;;;17.70;73.60;;;-151.14;100.00;62537.16;4900251;29;20128;-86
2023/06/01 00:41:54;;;;;;;;;;;17.70;73.60;;;-151.14;100.00;62537.16;4900877;29;19930;-87
2023/06/01 00:44:22;;;;;;;;;;;17.70;73.60;;;-151.14;100.00;62537.16;4917494;29;20121;-87
2023/06/01 00:46:50;;;;;;;;;;;17.70;73.60;;;18.08;100.00;62537.16;4900641;29;19923;-86
2023/06/01 00:49:18;;;;;;;;;;;17.70;73.60;;;-151.14;100.00;62537.16;4915934;29;19923;-87
2023/06/01 00:51:46;;;;;;;;;;;17.70;73.60;;;18.08;100.00;62537.16;4900554;29;19943;-86
2023/06/01 00:54:15;;;;;;;;;;;17.70;73.60;;;-151.14;100.00;62537.16;4916253;29;19923;-86
2023/06/01 00:56:43;;;;;;;;;;;17.70;73.60;;;-151.14;100.00;62537.16;4900430;29;19931;-87
2023/06/01 00:59:11;;;;;;;;;;;17.70;73.50;;;-151.14;100.00;62537.16;4915791;29;20210;-86
2023/06/01 01:01:42;;;;;;;;;;;17.70;73.50;;;-151.14;100.00;62537.16;4900638;29;19930;-87
2023/06/01 01:04:13;;;;;;;;;;;17.70;73.50;;;-151.14;100.00;62537.16;4900443;29;20237;-87
2023/06/01 01:06:48;;;;;;;;;;;17.70;73.50;;;18.12;100.00;62537.16;4900444;29;20095;-86
2023/06/01 01:09:23;;;;;;;;;;;17.70;73.50;;;18.08;100.00;62537.16;4899850;29;19923;-86
2023/06/01 01:11:54;;;;;;;;;;;17.70;73.60;;;18.08;100.00;62537.16;4900412;29;20118;-86
2023/06/01 01:14:24;;;;;;;;;;;17.70;73.60;;;18.08;100.00;62537.16;4900361;29;19924;-87
2023/06/01 01:16:56;;;;;;;;;;;17.70;73.60;;;16.89;100.00;62537.16;4900305;29;20126;-87
2023/06/01 01:19:36;;;;;;;;;;;17.70;73.60;;;-151.14;100.00;62537.16;4899776;29;19930;-86
2023/06/01 01:22:15;;;;;;;;;;;17.70;73.60;;;-151.14;100.00;62537.16;4899785;29;19938;-86
2023/06/01 01:24:54;;;;;;;;;;;17.70;74.50;;;18.08;100.00;62537.16;4915518;29;19930;-85
2023/06/01 01:27:25;;;;;;;;;;;17.70;73.70;;;187.61;100.00;62537.16;4900246;29;19930;-86
2023/06/01 01:29:55;;;;;;;;;;;17.70;73.60;;;16.90;100.00;62537.16;4899633;29;20226;-86
2023/06/01 01:32:23;;;;;;;;;;;17.70;73.60;;;-151.14;100.00;62537.16;4915723;29;19923;-86
2023/06/01 01:34:51;;;;;;;;;;;17.70;73.60;;;-151.14;100.00;62537.16;4915824;29;19923;-86
2023/06/01 01:37:21;;;;;;;;;;;17.70;73.60;;;-151.14;100.00;62537.16;4900025;29;19930;-86
2023/06/01 01:39:49;;;;;;;;;;;17.70;73.60;;;-151.14;100.00;62537.16;4899468;29;19923;-87
2023/06/01 01:42:17;;;;;;;;;;;17.70;73.70;;;-151.14;100.00;62537.16;4915626;29;19923;-87
2023/06/01 01:44:45;;;;;;;;;;;17.70;73.60;;;18.08;100.00;62537.16;4899696;29;19923;-86
2023/06/01 01:47:17;;;;;;;;;;;17.70;73.70;;;187.61;100.00;62537.16;4899747;29;19930;-86
2023/06/01 01:49:46;;;;;;;;;;;17.70;73.60;;;18.08;100.00;62537.16;4914910;29;20206;-86
2023/06/01 01:52:17;;;;;;;;;;;17.70;73.70;;;-151.14;100.00;62537.16;4899838;29;19923;-85
2023/06/01 01:54:46;;;;;;;;;;;17.60;73.60;;;187.61;100.00;62537.16;4899547;29;19930;-86
2023/06/01 01:57:14;;;;;;;;;;;17.60;73.60;;;-151.14;100.00;62537.16;4899653;29;20210;-86
2023/06/01 01:59:42;;;;;;;;;;;17.60;73.60;;;-151.14;100.00;62537.16;4899102;29;19923;-86
2023/06/01 02:02:11;;;;;;;;;;;17.70;73.70;;;18.08;100.00;62537.16;4899664;29;19929;-86
2023/06/01 02:04:42;;;;;;;;;;;17.60;73.60;;;-151.14;100.00;62537.16;4915234;29;19930;-86
2023/06/01 02:07:10;;;;;;;;;;;17.60;73.60;;;-151.14;100.00;62537.16;4899464;29;20218;-86
2023/06/01 02:09:39;;;;;;;;;;;17.60;73.60;;;-151.14;100.00;62537.16;4898927;29;19923;-86
2023/06/01 02:12:08;;;;;;;;;;;17.70;73.70;;;-151.14;100.00;62537.16;4899508;29;19923;-86
2023/06/01 02:14:36;;;;;;;;;;;17.60;73.60;;;-151.14;100.00;62537.16;4899481;29;20000;-86
2023/06/01 02:17:05;;;;;;;;;;;17.70;73.70;;;-151.14;100.00;62537.16;4915243;29;19923;-87
2023/06/01 02:19:33;;;;;;;;;;;17.60;73.60;;;18.08;100.00;62537.16;4897990;29;19923;-86
2023/06/01 02:22:03;;;;;;;;;;;17.70;73.70;;;60.43;100.00;62537.16;4898556;29;19933;-86
2023/06/01 02:24:31;;;;;;;;;;;17.70;73.70;;;-151.14;100.00;62537.16;4899211;29;19930;-86
2023/06/01 02:26:59;;;;;;;;;;;17.70;73.70;;;-151.14;100.00;62537.16;4915044;29;19946;-86
2023/06/01 02:29:27;;;;;;;;;;;17.70;73.70;;;-151.14;100.00;62537.16;4898504;29;19930;-86
2023/06/01 02:31:55;;;;;;;;;;;17.60;73.60;;;-151.14;100.00;62537.16;4915096;29;20195;-85
2023/06/01 02:34:23;;;;;;;;;;;17.70;73.60;;;18.08;100.00;62537.16;4898717;29;19929;-86
2023/06/01 02:36:55;;;;;;;;;;;17.70;73.60;;;-151.14;100.00;62537.16;4915091;29;19924;-86
2023/06/01 02:39:25;;;;;;;;;;;17.70;73.60;;;-151.14;100.00;62537.16;4914436;29;19923;-86
2023/06/01 02:41:54;;;;;;;;;;;17.70;73.60;;;-151.14;100.00;62537.16;4914848;29;19938;-85
2023/06/01 02:44:22;;;;;;;;;;;17.60;73.40;;;16.84;100.00;62537.16;4898941;29;19930;-86
2023/06/01 02:46:50;;;;;;;;;;;17.60;73.50;;;18.08;100.00;62537.16;4899039;29;19923;-86
2023/06/01 02:49:18;;;;;;;;;;;17.60;73.60;;;18.08;100.00;62537.16;4898383;29;19924;-87
2023/06/01 02:51:47;;;;;;;;;;;17.60;73.70;;;-151.14;100.00;62537.16;4915595;29;19949;-86
2023/06/01 02:54:20;;;;;;;;;;;17.60;73.80;;;-151.14;100.00;62537.16;4898812;29;19945;-87
2023/06/01 02:56:49;;;;;;;;;;;17.60;73.70;;;-151.14;100.00;62537.16;4898908;29;19923;-86
2023/06/01 02:59:23;;;;;;;;;;;17.60;73.80;;;16.76;100.00;62537.16;4913885;29;20265;-86
2023/06/01 03:02:00;;;;;;;;;;;17.60;73.70;;;-151.14;100.00;62537.16;4899042;29;19923;-85
2023/06/01 03:04:28;;;;;;;;;;;17.60;73.70;;;-151.14;100.00;62537.16;4914500;29;19923;-86
2023/06/01 03:06:58;;;;;;;;;;;17.60;73.70;;;16.78;100.00;62537.16;4898743;29;19930;-86
2023/06/01 03:09:44;;;;;;;;;;;17.60;73.70;;;-151.14;100.00;62537.16;4898155;29;19930;-86
2023/06/01 03:12:13;;;;;;;;;;;17.60;73.70;;;16.78;100.00;62537.16;4914429;29;20122;-86
2023/06/01 03:14:42;;;;;;;;;;;17.60;73.60;;;-151.14;100.00;62537.16;4898553;29;19930;-86
2023/06/01 03:17:10;;;;;;;;;;;17.60;73.60;;;-151.14;100.00;62537.16;4898715;29;19939;-86
2023/06/01 03:19:38;;;;;;;;;;;17.60;74.50;;;18.08;100.00;62537.16;4913849;29;19923;-86
2023/06/01 03:22:16;;;;;;;;;;;17.60;73.70;;;18.08;100.00;62537.16;4898725;29;19923;-86
2023/06/01 03:24:49;;;;;;;;;;;17.60;73.70;;;-151.14;100.00;62537.16;4898447;29;20218;-86
2023/06/01 03:27:20;;;;;;;;;;;17.60;73.70;;;-151.14;100.00;62537.16;4898510;29;20119;-86
2023/06/01 03:29:48;;;;;;;;;;;17.60;73.60;;;-151.14;100.00;62537.16;4898135;29;19931;-86
2023/06/01 03:32:16;;;;;;;;;;;17.60;73.60;;;-151.14;100.00;62537.16;4914309;29;19929;-86
2023/06/01 03:34:45;;;;;;;;;;;17.60;73.70;;;102.80;100.00;62537.16;4914198;29;19923;-87
2023/06/01 03:37:14;;;;;;;;;;;17.60;73.70;;;-151.14;100.00;62537.16;4898540;29;19924;-86
2023/06/01 03:39:42;;;;;;;;;;;17.60;73.80;;;-151.14;100.00;62537.16;4913435;29;19930;-87
2023/06/01 03:42:12;;;;;;;;;;;17.60;73.90;;;-151.14;100.00;62537.16;4914232;29;19923;-88
2023/06/01 03:44:42;;;;;;;;;;;17.60;73.90;;;-151.14;100.00;62537.16;4898141;29;19923;-87
2023/06/01 03:47:10;;;;;;;;;;;17.60;73.90;;;16.79;100.00;62537.16;4900547;29;19945;-86
2023/06/01 03:49:38;;;;;;;;;;;17.60;74.00;;;17.08;100.00;62537.16;4900994;29;20226;-86
2023/06/01 03:52:10;;;;;;;;;;;17.60;73.90;;;18.08;100.00;62537.16;4901594;29;19923;-87
2023/06/01 03:54:40;;;;;;;;;;;17.60;73.90;;;-151.14;100.00;62537.16;4917099;29;19923;-86
2023/06/01 03:57:18;;;;;;;;;;;17.60;73.90;;;-151.14;100.00;62537.16;4901637;29;19924;-87
2023/06/01 03:59:50;;;;;;;;;;;17.60;73.90;;;-151.14;100.00;62537.16;4916756;29;19923;-87
2023/06/01 04:02:19;;;;;;;;;;;17.60;73.90;;;-151.14;100.00;62537.16;4917167;29;19929;-86
2023/06/01 04:04:47;;;;;;;;;;;17.60;73.90;;;-151.14;100.00;62537.16;4901326;29;19930;-86
2023/06/01 04:07:18;;;;;;;;;;;17.60;74.70;;;18.08;100.00;62537.16;4901371;29;20215;-86
2023/06/01 04:09:47;;;;;;;;;;;17.60;73.90;;;-151.14;100.00;62537.16;4900725;29;19929;-86
2023/06/01 04:12:14;;;;;;;;;;;17.60;74.80;;;;;;4901299;29;19924;-86
2023/06/01 04:14:43;;;;;;;;;;;17.60;74.00;;;-151.14;100.00;62537.16;4916897;29;20460;-86
2023/06/01 04:17:12;;;;;;;;;;;17.60;74.10;;;-151.14;100.00;62537.16;4917040;29;20118;-86
2023/06/01 04:19:40;;;;;;;;;;;17.60;74.00;;;-151.14;100.00;62537.16;4916247;29;20224;-86
2023/06/01 04:22:11;;;;;;;;;;;17.60;73.90;;;-151.14;100.00;62537.16;4901138;29;19923;-85
2023/06/01 04:24:39;;;;;;;;;;;17.60;74.00;;;-151.14;100.00;62537.16;4916649;29;19923;-87
2023/06/01 04:27:08;;;;;;;;;;;17.60;74.00;;;-151.14;100.00;62537.16;4901088;29;19924;-86
2023/06/01 04:29:39;;;;;;;;;;;17.70;74.00;;;-151.14;100.00;62537.16;4900454;29;20214;-86
2023/06/01 04:32:07;;;;;;;;;;;17.70;74.00;;;-151.14;100.00;62537.16;4901169;29;19929;-86
2023/06/01 04:34:37;;;;;;;;;;;17.70;73.90;;;-151.14;100.00;62537.16;4900728;29;19923;-86
2023/06/01 04:37:06;;;;;;;;;;;17.70;74.00;;;-151.14;100.00;62537.16;4916639;29;19930;-87
2023/06/01 04:39:36;;;;;;;;;;;17.70;74.10;;;-151.14;100.00;62537.16;4900225;29;19929;-87
2023/06/01 04:42:04;;;;;;;;;;;17.70;74.20;;;-151.14;100.00;62537.16;4900882;29;19930;-86
2023/06/01 04:44:33;;;;;;;;;;;17.60;74.30;;;-151.14;100.00;62537.16;4916477;29;19923;-86
2023/06/01 04:47:03;;;;;;;;;;;17.70;74.60;;;-151.14;100.00;62537.16;4900652;29;19929;-87
2023/06/01 04:49:31;;;;;;;;;;;17.70;75.20;;;-151.14;100.00;62537.16;4881811;29;19924;-86
2023/06/01 04:52:01;;;;;;;;;;;17.70;74.30;;;-151.14;100.00;62537.16;4897519;29;19923;-87
2023/06/01 04:54:30;;;;;;;;;;;17.70;74.20;;;-151.14;100.00;62537.16;4897526;29;20233;-86
2023/06/01 04:56:58;;;;;;;;;;;17.70;75.00;;;-151.14;100.00;62537.16;4897340;29;19945;-87
2023/06/01 04:59:26;;;;;;;;;;;17.80;74.40;;;-151.14;100.00;62537.16;4881415;29;19923;-86
2023/06/01 05:01:54;;;;;;;;;;;17.80;73.90;;;102.80;100.00;62537.16;4897300;29;19923;-86
2023/06/01 05:04:22;;;;;;;;;;;17.80;73.70;;;-151.14;100.00;62537.16;4881889;29;19929;-86
2023/06/01 05:06:50;;;;;;;;;;;17.80;73.60;;;-151.14;100.00;62537.16;4881682;29;19923;-86
2023/06/01 05:09:20;;;;;;;;;;;17.80;73.60;;;-151.14;100.00;62537.16;4896912;29;19930;-86
2023/06/01 05:11:49;;;;;;;;;;;17.80;73.60;;;-151.14;100.00;62537.16;4897420;29;19924;-86
2023/06/01 05:14:17;;;;;;;;;;;17.80;74.20;;;-151.14;100.00;62537.16;4881740;29;19923;-86
2023/06/01 05:16:48;;;;;;;;;;;17.90;74.40;;;-151.14;100.00;62537.16;4897154;29;19923;-86
2023/06/01 05:19:16;;;;;;;;;;;17.90;74.00;;;-151.14;100.00;62537.16;4880987;29;19930;-86
2023/06/01 05:21:45;;;;;;;;;;;18.00;73.70;;;-151.14;100.00;62537.16;4881520;29;20099;-86
2023/06/01 05:24:15;;;;;;;;;;;18.00;73.40;;;-151.14;100.00;62537.16;4881498;29;19956;-86
2023/06/01 05:26:44;;;;;;;;;;;18.10;73.20;;;;;;4897045;29;19924;-86
2023/06/01 05:29:12;;;;;;;;;;;18.10;73.10;;;-151.14;100.00;62537.16;4897539;29;19930;-86
2023/06/01 05:31:40;;;;;;;;;;;18.10;72.90;;;-151.14;100.00;62537.16;4896979;29;20211;-86
2023/06/01 05:34:11;;;;;;;;;;;18.20;72.90;;;-151.14;100.00;62537.16;4896756;29;19945;-86
2023/06/01 05:36:40;;;;;;;;;;;18.20;72.70;;;-151.14;100.00;62537.16;4880054;29;20237;-87
2023/06/01 05:39:09;;;;;;;;;;;18.20;72.60;;;-151.14;100.00;62537.16;4879499;29;19923;-86
2023/06/01 05:41:37;;;;;;;;;;;18.30;72.80;;;17.54;100.00;62537.16;4880136;29;19930;-87
2023/06/01 05:44:06;;;;;;;;;;;18.30;72.50;;;17.57;100.00;62537.16;4895548;29;19923;-87
2023/06/01 05:46:35;;;;;;;;;;;18.30;72.40;;;17.62;100.00;62537.16;4895595;29;19924;-86
2023/06/01 05:49:03;;;;;;;;;;;18.40;72.10;;;-151.14;100.00;62537.16;4894833;29;19923;-86
2023/06/01 05:51:36;;;;;;;;;;;18.40;72.00;;;-151.14;100.00;62537.16;4879784;29;19929;-86
2023/06/01 05:54:05;;;;;;;;;;;18.50;71.80;;;17.77;100.00;62537.16;4879819;29;19930;-86
2023/06/01 05:56:33;;;;;;;;;;;18.50;71.80;;;17.82;100.00;62537.16;4879772;29;19923;-87
2023/06/01 05:59:01;;;;;;;;;;;18.60;71.60;;;17.87;100.00;62537.16;4879061;29;19930;-85
2023/06/01 06:01:31;;;;;;;;;;;18.60;71.50;;;-151.14;100.00;62537.16;4879765;29;19924;-87
2023/06/01 06:03:59;;;;;;;;;;;18.60;71.30;;;-151.14;100.00;62537.16;4895281;29;20208;-87
2023/06/01 06:06:27;;;;;;;;;;;18.70;71.10;;;-151.14;100.00;62537.16;4910892;29;20215;-87
2023/06/01 06:08:55;;;;;;;;;;;18.70;71.10;;;-151.14;100.00;62537.16;4878470;29;20233;-86
2023/06/01 06:11:24;;;;;;;;;;;18.80;70.90;;;-151.14;100.00;62537.16;4879646;29;19924;-86
2023/06/01 06:13:52;;;;;;;;;;;18.90;70.90;;;-151.14;100.00;62537.16;4879522;29;20147;-87
2023/06/01 06:16:20;;;;;;;;;;;18.90;70.80;;;-151.14;100.00;62537.16;4894953;29;20013;-87
2023/06/01 06:18:50;;;;;;;;;;;18.90;70.50;;;-151.14;100.00;62537.16;4910051;29;19930;-87
2023/06/01 06:21:18;;;;;;;;;;;19.00;70.70;;;-151.14;100.00;62537.16;4894870;29;19924;-87
2023/06/01 06:23:46;;;;;;;;;;;19.00;70.30;;;39.25;100.00;62537.16;4894889;29;19930;-87
2023/06/01 06:26:14;;;;;;;;;;;18.90;70.10;;;-151.14;100.00;62537.16;4879214;29;20233;-88
2023/06/01 06:28:42;;;;;;;;;;;19.00;70.10;;;-151.14;100.00;62537.16;4909801;29;20126;-87
2023/06/01 06:31:10;;;;;;;;;;;19.00;70.10;;;-151.14;100.00;62537.16;4894780;29;19930;-87
2023/06/01 06:33:38;;;;;;;;;;;19.00;70.10;;;-151.14;100.00;62537.16;4879083;29;19924;-87
2023/06/01 06:36:08;;;;;;;;;;;19.10;70.10;;;-151.14;100.00;62537.16;4814462;29;1938700;-86
2023/06/01 06:38:36;;;;;;;;;;;19.10;70.20;;;-151.14;100.00;62537.16;4880036;29;20227;-87
2023/06/01 06:41:04;;;;;;;;;;;19.10;70.20;;;-151.14;100.00;62537.16;4896109;29;19924;-87
2023/06/01 06:43:32;;;;;;;;;;;19.10;70.10;;;-151.14;100.00;62537.16;4896197;29;19924;-87
2023/06/01 06:46:00;;;;;;;;;;;19.10;70.00;;;-151.14;100.00;62537.16;4895933;29;20315;-86
2023/06/01 06:48:28;;;;;;;;;;;19.10;69.90;;;-151.14;100.00;62537.16;4895223;29;19927;-87
2023/06/01 06:50:56;;;;;;;;;;;19.20;69.90;;;-151.14;100.00;62537.16;4896066;29;19929;-88
2023/06/01 06:53:26;;;;;;;;;;;19.20;69.80;;;-151.14;100.00;62537.16;4895795;29;19930;-88
2023/06/01 06:55:54;;;;;;;;;;;19.20;69.80;;;-151.14;100.00;62537.16;4895826;29;20100;-88
2023/06/01 06:58:22;;;;;;;;;;;19.30;69.60;;;-151.14;100.00;62537.16;4895283;29;19930;-87
2023/06/01 07:00:50;;;;;;;;;;;19.30;69.60;;;-151.14;100.00;62537.16;4895904;29;19924;-87
2023/06/01 07:03:18;;;;;;;;;;;19.30;69.60;;;-151.14;100.00;62537.16;4895668;29;19946;-88
2023/06/01 07:05:47;;;;;;;;;;;19.30;69.60;;;-151.14;100.00;62537.16;4911332;29;19923;-88
2023/06/01 07:08:16;;;;;;;;;;;19.30;69.60;;;-151.14;100.00;62537.16;4879792;29;19927;-89
2023/06/01 07:10:45;;;;;;;;;;;19.30;69.60;;;-151.14;100.00;62537.16;4879928;29;19923;-86
2023/06/01 07:13:13;;;;;;;;;;;19.30;69.60;;;-151.14;100.00;62537.16;4895509;29;20211;-87
2023/06/01 07:15:42;;;;;;;;;;;19.30;69.40;;;-151.14;100.00;62537.16;4895443;29;19930;-87
2023/06/01 07:18:09;;;;;;;;;;;19.30;69.40;;;-151.14;100.00;62537.16;4895368;29;20233;-87
2023/06/01 07:20:37;;;;;;;;;;;19.40;69.30;;;-151.14;100.00;62537.16;4895334;29;20123;-87
2023/06/01 07:23:06;;;;;;;;;;;19.40;69.20;;;-151.14;100.00;62537.16;4883197;29;19929;-86
2023/06/01 07:25:34;;;;;;;;;;;19.40;69.00;;;;;;4898800;29;20233;-88
2023/06/01 07:28:06;;;;;;;;;;;19.50;69.10;;;-151.14;100.00;62537.16;4883166;29;19924;-88
2023/06/01 07:30:34;;;;;;;;;;;19.50;69.10;;;-151.14;100.00;62537.16;4898383;29;19930;-87
2023/06/01 07:33:03;;;;;;;;;;;19.50;68.90;;;-151.14;100.00;62537.16;4882986;29;20233;-87
2023/06/01 07:35:32;;;;;;;;;;;19.50;68.70;;;-151.14;100.00;62537.16;4883119;29;19923;-86
2023/06/01 07:38:03;;;;;;;;;;;19.50;68.80;;;-151.14;100.00;62537.16;4898795;29;19923;-87
2023/06/01 07:40:31;;;;;;;;;;;19.50;68.80;;;-151.14;100.00;62537.16;4889052;29;19923;-87
2023/06/01 07:42:59;;;;;;;;;;;19.50;68.90;;;-151.14;100.00;62537.16;4917400;29;19923;-87
2023/06/01 07:45:28;;;;;;;;;;;19.50;68.90;;;-151.14;100.00;62537.16;4917409;29;20118;-87
2023/06/01 07:47:56;;;;;;;;;;;19.50;68.80;;;-151.14;100.00;62537.16;4917219;29;19923;-86
2023/06/01 07:50:28;;;;;;;;;;;19.50;68.90;;;18.08;100.00;62537.16;4916585;29;19929;-88
2023/06/01 07:52:56;;;;;;;;;;;19.50;68.80;;;-151.14;100.00;62537.16;4901593;29;20206;-87
2023/06/01 07:55:24;;;;;;;;;;;19.50;68.90;;;-151.14;100.00;62537.16;4901527;29;19929;-86
2023/06/01 07:57:52;;;;;;;;;;;19.50;69.00;;;18.77;100.00;62537.16;4901394;29;19923;-86
2023/06/01 08:00:22;;;;;;;;;;;19.50;69.00;;;-151.14;100.00;62537.16;4916681;29;19923;-89
2023/06/01 08:02:52;;;;;;;;;;;19.50;69.00;;;-151.14;100.00;62537.16;4901358;29;19928;-87
2023/06/01 08:05:20;;;;;;;;;;;19.50;68.90;;;-151.14;100.00;62537.16;4901475;29;19927;-89
2023/06/01 08:07:48;;;;;;;;;;;19.60;68.90;;;-151.14;100.00;62537.16;4917036;29;20122;-87
2023/06/01 08:10:17;;;;;;;;;;;19.50;68.90;;;-151.14;100.00;62537.16;4900788;29;19923;-87
2023/06/01 08:12:45;;;;;;;;;;;19.60;68.90;;;-151.14;100.00;62537.16;4901259;29;19929;-87
2023/06/01 08:15:13;;;;;;;;;;;19.60;68.90;;;-151.14;100.00;62537.16;4916910;29;20126;-87
2023/06/01 08:17:41;;;;;;;;;;;19.60;68.80;;;-151.14;100.00;62537.16;4916893;29;20223;-87
2023/06/01 08:20:12;;;;;;;;;;;19.60;68.90;;;-151.14;100.00;62537.16;4900609;29;19935;-87
2023/06/01 08:22:40;;;;;;;;;;;19.60;68.90;;;-151.14;100.00;62537.16;4901124;29;20218;-87
2023/06/01 08:25:09;;;;;;;;;;;19.60;68.80;;;18.80;100.00;62537.16;4916731;29;19923;-88
2023/06/01 08:27:37;;;;;;;;;;;19.60;68.80;;;-151.14;100.00;62537.16;4901199;29;20150;-88
2023/06/01 08:30:06;;;;;;;;;;;19.50;68.80;;;-151.14;100.00;62537.16;4916102;29;20414;-88
2023/06/01 08:32:34;;;;;;;;;;;19.50;68.80;;;18.76;100.00;62537.16;4917484;29;20092;-87
2023/06/01 08:35:02;;;;;;;;;;;19.50;68.90;;;-151.14;100.00;62537.16;4900754;29;19923;-87
2023/06/01 08:37:32;;;;;;;;;;;19.50;69.00;;;-151.14;100.00;62537.16;4900801;29;19923;-87
2023/06/01 08:40:00;;;;;;;;;;;19.50;69.10;;;-151.14;100.00;62537.16;4900306;29;19930;-87
2023/06/01 08:42:32;;;;;;;;;;;19.50;69.20;;;-151.14;100.00;62537.16;4916467;29;19923;-86
2023/06/01 08:45:00;;;;;;;;;;;19.50;69.20;;;-151.14;100.00;62537.16;4900713;29;19923;-88
2023/06/01 08:47:28;;;;;;;;;;;19.50;69.30;;;-151.14;100.00;62537.16;4916521;29;20211;-88
2023/06/01 08:49:56;;;;;;;;;;;19.50;69.40;;;-151.14;100.00;62537.16;4915967;29;20119;-88
2023/06/01 08:52:28;;;;;;;;;;;19.50;69.50;;;-151.14;100.00;62537.16;4900745;29;19924;-88
2023/06/01 08:54:58;;;;;;;;;;;19.50;69.60;;;-151.14;100.00;62537.16;4916393;29;19923;-88
2023/06/01 08:57:26;;;;;;;;;;;19.50;69.50;;;-151.14;100.00;62537.16;4900677;29;19923;-86
2023/06/01 08:59:54;;;;;;;;;;;19.50;69.60;;;-151.14;100.00;62537.16;4899897;29;19923;-87
2023/06/01 09:02:23;;;;;;;;;;;19.50;69.50;;;-151.14;100.00;62537.16;4916306;29;19961;-87
2023/06/01 09:04:50;;;;;;;;;;;19.50;69.50;;;;;;4900501;29;20218;-87
2023/06/01 09:07:18;;;;;;;;;;;19.50;69.60;;;-151.14;100.00;62537.16;4916224;29;19923;-86
2023/06/01 09:09:46;;;;;;;;;;;19.50;69.50;;;-151.14;100.00;62537.16;4915365;29;19930;-86
2023/06/01 09:12:25;;;;;;;;;;;19.50;69.50;;;-151.14;100.00;62537.16;4900407;29;19923;-86
2023/06/01 09:15:08;;;;;;;;;;;19.50;69.50;;;-151.14;100.00;62537.16;4915968;29;19924;-87
2023/06/01 09:17:36;;;;;;;;;;;19.50;69.30;;;-151.14;100.00;62537.16;4916125;29;20214;-87
2023/06/01 09:20:05;;;;;;;;;;;19.60;69.30;;;-151.14;100.00;62537.16;4915465;29;19930;-87
2023/06/01 09:22:40;;;;;;;;;;;19.50;69.30;;;-151.14;100.00;62537.16;4916047;29;19930;-87
2023/06/01 09:25:08;;;;;;;;;;;19.60;69.30;;;-151.14;100.00;62537.16;4916888;29;19924;-87
2023/06/01 09:27:45;;;;;;;;;;;19.60;69.50;;;-151.14;100.00;62537.16;4915994;29;19923;-87
2023/06/01 09:30:14;;;;;;;;;;;19.60;69.50;;;28.66;100.00;62537.16;4899529;29;20244;-86
2023/06/01 09:32:42;;;;;;;;;;;19.60;70.30;;;-151.14;100.00;62537.16;4915925;29;19949;-86
2023/06/01 09:35:10;;;;;;;;;;;19.60;69.40;;;-151.14;100.00;62537.16;4900029;29;19930;-86
2023/06/01 09:37:38;;;;;;;;;;;19.60;69.70;;;-151.14;100.00;62537.16;4900093;29;19929;-87
2023/06/01 09:40:19;;;;;;;;;;;19.60;69.70;;;-151.14;100.00;62537.16;4915179;29;19923;-87
2023/06/01 09:42:50;;;;;;;;;;;19.60;69.60;;;-151.14;100.00;62537.16;4899862;29;19923;-88
2023/06/01 09:45:20;;;;;;;;;;;19.60;69.70;;;18.84;100.00;62537.16;4899080;29;19923;-87
2023/06/01 09:47:48;;;;;;;;;;;19.60;69.80;;;-151.14;100.00;62537.16;4899853;29;19993;-87
2023/06/01 09:50:34;;;;;;;;;;;19.60;69.80;;;-151.14;100.00;62537.16;4899271;29;20127;-88
2023/06/01 09:53:03;;;;;;;;;;;19.70;69.70;;;18.86;100.00;62537.16;4915375;29;19924;-87
2023/06/01 09:55:31;;;;;;;;;;;19.60;69.50;;;-151.14;100.00;62537.16;4916433;29;19923;-87
2023/06/01 09:58:21;;;;;;;;;;;19.70;69.70;;;-151.14;100.00;62537.16;4915491;29;19923;-87
2023/06/01 10:00:50;;;;;;;;;;;19.70;69.80;;;-151.14;100.00;62537.16;4899640;29;19930;-87
2023/06/01 10:03:19;;;;;;;;;;;19.60;69.40;;;-151.14;100.00;62537.16;4899635;29;20123;-86
2023/06/01 10:05:47;;;;;;;;;;;19.70;69.60;;;-151.14;100.00;62537.16;4916350;29;19923;-87
2023/06/01 10:08:16;;;;;;;;;;;19.60;69.80;;;18.08;100.00;62537.16;4914831;29;19923;-88
2023/06/01 10:10:45;;;;;;;;;;;19.70;70.00;;;28.66;100.00;62537.16;4899223;29;19923;-87
2023/06/01 10:13:13;;;;;;;;;;;19.60;70.00;;;18.81;100.00;62537.16;4899630;29;19929;-87
2023/06/01 10:15:42;;;;;;;;;;;19.60;69.60;;;-151.14;100.00;62537.16;4915224;29;19923;-87
2023/06/01 10:18:10;;;;;;;;;;;19.60;69.90;;;-151.14;100.00;62537.16;4899452;29;19923;-86
2023/06/01 10:20:39;;;;;;;;;;;19.60;69.80;;;-151.14;100.00;62537.16;4898840;29;20110;-87
2023/06/01 10:23:07;;;;;;;;;;;19.50;69.80;;;-151.14;100.00;62537.16;4899276;29;19923;-87
2023/06/01 10:25:37;;;;;;;;;;;19.50;70.00;;;-151.14;100.00;62537.16;4914932;29;20118;-88
2023/06/01 10:28:07;;;;;;;;;;;19.50;70.00;;;-151.14;100.00;62537.16;4914912;29;19929;-87
2023/06/01 10:30:35;;;;;;;;;;;19.40;70.30;;;-151.14;100.00;62537.16;4898710;29;19923;-87
2023/06/01 10:33:04;;;;;;;;;;;19.40;70.20;;;-151.14;100.00;62537.16;4899226;29;19930;-87
2023/06/01 10:36:03;;;;;;;;;;;19.40;70.50;;;-151.14;100.00;62537.16;4914634;29;19923;-86
2023/06/01 10:38:31;;;;;;;;;;;19.40;70.90;;;-151.14;100.00;62537.16;4898551;29;19927;-86
2023/06/01 10:41:30;;;;;;;;;;;19.40;70.90;;;-151.14;100.00;62537.16;4914744;29;20123;-85
2023/06/01 10:43:58;;;;;;;;;;;19.40;70.90;;;-151.14;100.00;62537.16;4915816;29;20099;-85
2023/06/01 10:46:42;;;;;;;;;;;19.40;71.10;;;-151.14;100.00;62537.16;4899013;29;19930;-85
2023/06/01 10:49:12;;;;;;;;;;;19.30;71.20;;;-151.14;100.00;62537.16;4898459;29;19930;-84
2023/06/01 10:51:40;;;;;;;;;;;19.30;71.20;;;-151.14;100.00;62537.16;4898798;29;19929;-85
2023/06/01 10:54:32;;;;;;;;;;;19.30;71.30;;;-151.14;100.00;62537.16;4898830;29;19927;-85
2023/06/01 10:57:19;;;;;;;;;;;19.30;71.20;;;-151.14;100.00;62537.16;4889657;29;20121;-85
2023/06/01 11:00:14;;;;;;;;;;;19.30;71.40;;;-151.14;100.00;62537.16;4913836;29;19930;-86
2023/06/01 11:02:56;;;;;;;;;;;19.30;71.40;;;-151.14;100.00;62537.16;4914447;29;19924;-85
2023/06/01 11:05:43;;;;;;;;;;;19.30;71.60;;;39.25;100.00;62537.16;4899147;29;19923;-85
2023/06/01 11:08:48;;;;;;;;;;;19.30;72.80;;;-151.14;100.00;62537.16;4915000;29;19923;-85
2023/06/01 11:11:16;;;;;;;;;;;19.30;72.90;;;-151.14;100.00;62537.16;4895980;29;20233;-85
2023/06/01 11:13:45;;;;;;;;;;;19.30;72.00;;;;;;4879920;29;19924;-85